Huvudsida
METAR-TAF:

METAR-TAF

Flygplatser :

Skellefteå Airport

Skellefteå, Sverige

latitud: 64-38N, longitud: 021-05E, höjd: 49 m

Aktuellt väderrapport

Denna rapport gjordes för 20 minuter sedan, klockan 00:50 UTC
Vind 4 kt från väst
Temperatur 3°C
Fuktighet 75%
Tryck 1020 hPa
Sikt 10 km eller mer

METAR: ESNS 210050Z AUTO 26004KT 9999 OVC094/// 03/M01 Q1020

Tid: 03:10 (01:10 UTC)


TAF: saknas

Aktuella väderrapporter och prognoser från 4000 flygplatser (METAR- och TAF-rapporter).

De tillgängliga stationerna syns som gula och röda prickar på kartan.

För musen över prickarna för att se namnen på stationerna.

Klicka sedan för att få väderrapporter och prognoser.

För att ändra kartan: Klicka på de gröna knapparna med ett svart kors på för att zooma in; den gröna knappen med ett streck på för att zooma ut; eller på de gröna pilarna för angränsande kartor.


METAR-TAF: